createdAt,value
2023-01-07T00:01:13.818Z,29.20
2023-01-07T00:06:23.373Z,30.00
2023-01-07T00:11:33.498Z,28.10
2023-01-07T00:16:42.652Z,25.30
2023-01-07T00:21:50.911Z,20.50
2023-01-07T00:26:59.622Z,32.30
2023-01-07T00:32:09.805Z,31.70
2023-01-07T00:37:34.059Z,23.90
2023-01-07T00:43:01.660Z,25.20
2023-01-07T00:53:15.415Z,27.50
2023-01-07T00:58:26.158Z,31.40
2023-01-07T01:03:35.131Z,30.40
2023-01-07T01:08:44.235Z,27.90
2023-01-07T01:13:51.802Z,27.40
2023-01-07T01:19:00.070Z,23.90
2023-01-07T01:24:08.085Z,24.10
2023-01-07T01:29:15.678Z,33.30
2023-01-07T01:34:25.455Z,24.80
2023-01-07T01:39:33.150Z,31.00
2023-01-07T01:44:48.506Z,27.00
2023-01-07T01:50:01.179Z,32.50
2023-01-07T01:55:13.778Z,30.10
2023-01-07T02:00:22.044Z,33.50
2023-01-07T02:05:35.704Z,27.00
2023-01-07T02:10:45.499Z,37.40
2023-01-07T02:16:01.376Z,26.20
2023-01-07T02:21:21.002Z,28.20
2023-01-07T02:27:07.682Z,30.60
2023-01-07T02:32:36.050Z,25.20
2023-01-07T02:37:56.599Z,31.50
2023-01-07T02:43:13.473Z,27.50
2023-01-07T02:48:24.166Z,32.00
2023-01-07T02:53:34.019Z,33.40
2023-01-07T02:59:12.004Z,30.70
2023-01-07T03:04:41.064Z,28.30
2023-01-07T03:09:57.712Z,29.10
2023-01-07T03:15:13.377Z,38.80
2023-01-07T03:20:26.093Z,34.80
2023-01-07T03:25:36.483Z,34.40
2023-01-07T03:30:44.305Z,32.30
2023-01-07T03:35:59.220Z,30.70
2023-01-07T03:41:08.224Z,31.70
2023-01-07T03:46:22.261Z,37.30
2023-01-07T03:51:30.632Z,37.10
2023-01-07T03:56:38.244Z,33.30
2023-01-07T04:01:46.528Z,29.00
2023-01-07T04:06:54.954Z,35.90
2023-01-07T04:12:02.478Z,32.50
2023-01-07T04:17:10.260Z,35.10
2023-01-07T04:25:32.580Z,30.50
2023-01-07T04:30:39.921Z,35.40
2023-01-07T04:35:49.757Z,35.50
2023-01-07T04:40:58.578Z,33.40
2023-01-07T04:46:07.864Z,32.20
2023-01-07T04:51:15.417Z,30.50
2023-01-07T04:56:23.046Z,29.10
2023-01-07T05:01:33.081Z,32.10
2023-01-07T05:06:40.845Z,36.20
2023-01-07T05:11:49.266Z,33.40
2023-01-07T05:16:57.851Z,34.20
2023-01-07T05:22:06.531Z,32.00
2023-01-07T05:27:13.917Z,37.50
2023-01-07T05:32:21.447Z,36.00
2023-01-07T05:37:29.046Z,35.60
2023-01-07T05:42:36.855Z,33.50
2023-01-07T05:47:46.311Z,32.70
2023-01-07T05:52:55.352Z,33.60
2023-01-07T05:58:02.679Z,34.80
2023-01-07T06:03:10.158Z,32.80
2023-01-07T06:08:17.884Z,38.60
2023-01-07T06:13:25.999Z,33.30
2023-01-07T06:18:34.079Z,36.20
2023-01-07T06:23:41.650Z,34.00
2023-01-07T06:28:49.423Z,31.80
2023-01-07T06:33:58.066Z,30.30
2023-01-07T06:39:06.206Z,36.30
2023-01-07T06:44:13.689Z,30.70
2023-01-07T06:49:21.408Z,174.10
2023-01-07T06:54:29.430Z,61.30
2023-01-07T06:59:37.378Z,43.80
2023-01-07T07:04:44.695Z,52.10
2023-01-07T07:09:52.559Z,51.00
2023-01-07T07:15:00.690Z,61.20
2023-01-07T07:20:10.833Z,56.30
2023-01-07T07:25:18.736Z,50.20
2023-01-07T07:30:46.230Z,40.10
2023-01-07T07:35:58.262Z,63.00
2023-01-07T07:41:06.825Z,76.90
2023-01-07T07:46:16.329Z,64.80
2023-01-07T07:51:26.026Z,62.70
2023-01-07T07:56:34.434Z,50.80
2023-01-07T08:01:42.563Z,44.40
2023-01-07T08:06:50.174Z,42.00
2023-01-07T08:11:57.778Z,65.60
2023-01-07T08:17:05.384Z,58.30
2023-01-07T08:22:13.002Z,45.50
2023-01-07T08:27:20.633Z,49.90
2023-01-07T08:32:28.002Z,88.50
2023-01-07T08:37:35.873Z,34.60
2023-01-07T08:42:44.240Z,43.40
2023-01-07T08:47:53.150Z,48.70
2023-01-07T08:53:01.754Z,42.20
2023-01-07T08:58:09.527Z,36.70
2023-01-07T09:03:16.840Z,59.00
2023-01-07T09:08:24.764Z,42.70
2023-01-07T09:13:32.248Z,34.20
2023-01-07T09:18:39.523Z,64.20
2023-01-07T09:23:46.946Z,46.70
2023-01-07T09:28:55.668Z,60.80
2023-01-07T09:34:02.890Z,44.10
2023-01-07T09:44:28.591Z,47.00
2023-01-07T09:49:36.066Z,25.50
2023-01-07T09:54:47.589Z,42.90
2023-01-07T09:59:58.624Z,40.10
2023-01-07T10:05:19.546Z,63.20
2023-01-07T10:10:36.914Z,52.60
2023-01-07T10:15:57.476Z,42.40
2023-01-07T10:21:17.324Z,36.90
2023-01-07T10:26:34.907Z,51.00
2023-01-07T10:31:43.501Z,49.00
2023-01-07T10:37:02.177Z,55.20
2023-01-07T10:42:20.797Z,44.60
2023-01-07T10:47:42.282Z,38.20
2023-01-07T10:52:58.181Z,42.80
2023-01-07T10:58:10.715Z,35.60
2023-01-07T11:03:28.314Z,41.20
2023-01-07T11:08:41.575Z,27.30
2023-01-07T11:14:00.258Z,32.60
2023-01-07T11:19:10.968Z,25.50
2023-01-07T11:24:35.979Z,18.90
2023-01-07T11:29:46.652Z,19.90
2023-01-07T11:35:00.044Z,17.80
2023-01-07T11:40:25.103Z,19.70
2023-01-07T11:45:38.406Z,17.20
2023-01-07T11:50:57.465Z,15.60
2023-01-07T11:56:07.633Z,17.00
2023-01-07T12:01:23.255Z,14.90
2023-01-07T12:06:35.038Z,13.70
2023-01-07T12:11:46.024Z,9.70
2023-01-07T12:16:56.013Z,8.70
2023-01-07T12:22:22.937Z,9.90
2023-01-07T12:27:40.243Z,8.40
2023-01-07T12:33:02.850Z,10.10
2023-01-07T12:38:18.191Z,7.90
2023-01-07T12:43:32.276Z,9.10
2023-01-07T12:48:46.079Z,9.20
2023-01-07T12:54:01.522Z,7.30
2023-01-07T13:04:43.804Z,6.70
2023-01-07T13:09:57.894Z,8.60
2023-01-07T13:15:13.937Z,11.20
2023-01-07T13:20:36.069Z,7.60
2023-01-07T13:25:53.607Z,9.20
2023-01-07T13:31:22.934Z,9.30
2023-01-07T13:36:40.395Z,11.90
2023-01-07T13:42:08.791Z,10.40
2023-01-07T13:47:21.103Z,11.70
2023-01-07T13:52:34.252Z,9.90
2023-01-07T13:57:46.247Z,11.50
2023-01-07T14:02:59.220Z,13.10
2023-01-07T14:08:08.555Z,19.50
2023-01-07T14:13:32.341Z,15.70
2023-01-07T14:19:13.122Z,13.90
2023-01-07T14:24:52.879Z,19.00
2023-01-07T14:30:16.106Z,30.00
2023-01-07T14:35:30.232Z,21.60
2023-01-07T14:41:09.402Z,15.10
2023-01-07T14:46:46.804Z,21.20
2023-01-07T14:52:03.205Z,22.70
2023-01-07T14:57:21.560Z,19.10
2023-01-07T15:03:07.836Z,18.70
2023-01-07T15:08:38.760Z,18.00
2023-01-07T15:14:13.265Z,18.80
2023-01-07T15:19:29.435Z,20.10
2023-01-07T15:24:46.147Z,22.00
2023-01-07T15:30:03.434Z,20.80
2023-01-07T15:40:28.039Z,17.90
2023-01-07T15:45:36.175Z,17.90
2023-01-07T15:50:47.725Z,17.60
2023-01-07T15:56:02.447Z,22.40
2023-01-07T16:04:31.563Z,20.30
2023-01-07T16:09:40.238Z,21.40
2023-01-07T16:14:47.830Z,26.90
2023-01-07T16:20:12.256Z,28.10
2023-01-07T16:25:28.302Z,28.70
2023-01-07T16:30:39.760Z,34.90
2023-01-07T16:35:50.894Z,32.30
2023-01-07T16:41:00.707Z,29.30
2023-01-07T16:46:19.471Z,42.50
2023-01-07T16:51:42.665Z,37.60
2023-01-07T16:56:53.286Z,32.60
2023-01-07T17:02:14.985Z,42.30
2023-01-07T17:07:28.755Z,38.70
2023-01-07T17:12:43.129Z,36.50
2023-01-07T17:17:52.547Z,36.20
2023-01-07T17:23:00.774Z,43.70
2023-01-07T17:28:19.351Z,41.20
2023-01-07T17:33:29.054Z,45.90
2023-01-07T17:38:36.410Z,47.60
2023-01-07T17:43:44.110Z,41.90
2023-01-07T17:48:51.963Z,47.50
2023-01-07T17:54:01.179Z,47.60
2023-01-07T17:59:17.960Z,48.30
2023-01-07T18:04:26.172Z,45.50
2023-01-07T18:09:37.118Z,47.60
2023-01-07T18:14:47.395Z,57.30
2023-01-07T18:19:56.553Z,55.00
2023-01-07T18:25:05.575Z,56.20
2023-01-07T18:30:18.568Z,57.70
2023-01-07T18:35:27.035Z,55.60
2023-01-07T18:40:34.748Z,56.30
2023-01-07T18:45:46.462Z,53.90
2023-01-07T18:50:56.012Z,54.50
2023-01-07T18:56:08.648Z,57.40
2023-01-07T19:01:16.197Z,59.60
2023-01-07T19:06:25.174Z,58.80
2023-01-07T19:11:32.927Z,59.40
2023-01-07T19:16:40.540Z,64.90
2023-01-07T19:21:48.438Z,62.60
2023-01-07T19:26:57.662Z,56.10
2023-01-07T19:32:06.006Z,60.30
2023-01-07T19:37:16.021Z,61.80
2023-01-07T19:42:26.974Z,54.60
2023-01-07T19:47:35.569Z,68.40
2023-01-07T19:52:43.032Z,49.50
2023-01-07T19:57:51.131Z,59.00
2023-01-07T20:02:59.812Z,78.60
2023-01-07T20:08:08.105Z,74.60
2023-01-07T20:13:16.820Z,67.10
2023-01-07T20:18:26.994Z,68.90
2023-01-07T20:23:35.568Z,80.10
2023-01-07T20:28:43.461Z,74.50
2023-01-07T20:33:52.796Z,71.60
2023-01-07T20:39:07.248Z,74.50
2023-01-07T20:44:15.114Z,73.60
2023-01-07T20:49:23.599Z,63.40
2023-01-07T20:54:31.938Z,64.60
2023-01-07T20:59:39.332Z,77.90
2023-01-07T21:04:49.359Z,61.60
2023-01-07T21:09:57.808Z,74.70
2023-01-07T21:15:05.831Z,77.30
2023-01-07T21:20:17.341Z,76.60
2023-01-07T21:25:26.066Z,76.90
2023-01-07T21:30:33.798Z,74.60
2023-01-07T21:35:43.820Z,79.40
2023-01-07T21:40:51.653Z,81.00
2023-01-07T21:46:02.529Z,78.50
2023-01-07T21:51:12.641Z,75.20
2023-01-07T21:56:21.063Z,78.50
2023-01-07T22:01:29.557Z,72.80
2023-01-07T22:06:38.754Z,80.90
2023-01-07T22:11:46.556Z,79.00
2023-01-07T22:16:54.984Z,74.50
2023-01-07T22:22:02.812Z,75.30
2023-01-07T22:27:10.826Z,76.50
2023-01-07T22:32:22.615Z,85.60
2023-01-07T22:37:32.546Z,94.60
2023-01-07T22:42:53.263Z,79.00
2023-01-07T22:48:02.425Z,78.40
2023-01-07T22:53:11.526Z,63.40
2023-01-07T22:58:21.120Z,76.30
2023-01-07T23:03:33.106Z,75.50
2023-01-07T23:08:40.978Z,77.20
2023-01-07T23:13:48.544Z,80.10
2023-01-07T23:18:56.398Z,75.20
2023-01-07T23:24:04.210Z,80.20
2023-01-07T23:29:14.060Z,96.40
2023-01-07T23:34:22.018Z,77.00
2023-01-07T23:39:30.705Z,78.80
2023-01-07T23:44:39.004Z,78.90
2023-01-07T23:49:47.271Z,84.60
2023-01-07T23:54:57.071Z,77.60
